createdAt,value
2018-04-15T00:01:11.034Z,41.10
2018-04-15T00:03:37.355Z,42.97
2018-04-15T00:06:03.695Z,41.43
2018-04-15T00:08:30.064Z,40.00
2018-04-15T00:10:57.157Z,40.37
2018-04-15T00:13:23.521Z,42.50
2018-04-15T00:15:49.841Z,41.30
2018-04-15T00:18:16.208Z,40.87
2018-04-15T00:20:42.551Z,42.57
2018-04-15T00:23:08.913Z,41.93
2018-04-15T00:25:35.241Z,42.93
2018-04-15T00:28:01.586Z,40.97
2018-04-15T00:30:27.955Z,43.83
2018-04-15T00:32:54.291Z,42.63
2018-04-15T00:35:20.770Z,42.90
2018-04-15T00:37:47.101Z,39.17
2018-04-15T00:40:13.493Z,43.03
2018-04-15T00:42:39.832Z,41.07
2018-04-15T00:45:07.951Z,39.83
2018-04-15T00:47:34.320Z,38.37
2018-04-15T00:50:00.647Z,38.90
2018-04-15T00:52:27.002Z,39.50
2018-04-15T00:54:54.073Z,38.47
2018-04-15T00:57:20.431Z,40.13
2018-04-15T00:59:46.771Z,37.13
2018-04-15T01:02:13.122Z,37.30
2018-04-15T01:04:39.478Z,36.50
2018-04-15T01:07:07.576Z,36.73
2018-04-15T01:09:33.932Z,37.43
2018-04-15T01:12:00.262Z,35.73
2018-04-15T01:14:26.637Z,37.17
2018-04-15T01:16:52.966Z,36.63
2018-04-15T01:19:20.096Z,36.80
2018-04-15T01:21:46.449Z,39.57
2018-04-15T01:24:12.807Z,39.20
2018-04-15T01:26:39.138Z,38.43
2018-04-15T01:29:05.623Z,36.30
2018-04-15T01:31:32.111Z,36.63
2018-04-15T01:33:58.462Z,37.27
2018-04-15T01:36:24.795Z,37.63
2018-04-15T01:38:51.147Z,38.27
2018-04-15T01:41:17.497Z,38.70
2018-04-15T01:43:44.678Z,37.67
2018-04-15T01:46:11.037Z,37.23
2018-04-15T01:48:37.388Z,36.40
2018-04-15T01:51:03.747Z,38.37
2018-04-15T01:53:30.109Z,37.53
2018-04-15T01:55:56.487Z,38.00
2018-04-15T01:58:23.583Z,36.73
2018-04-15T02:00:49.932Z,36.57
2018-04-15T02:03:16.268Z,36.70
2018-04-15T02:05:42.622Z,37.33
2018-04-15T02:08:08.927Z,36.57
2018-04-15T02:10:35.283Z,38.60
2018-04-15T02:13:01.638Z,34.60
2018-04-15T02:15:28.737Z,39.07
2018-04-15T02:17:55.070Z,34.80
2018-04-15T02:20:21.533Z,35.77
2018-04-15T02:22:47.944Z,33.63
2018-04-15T02:25:14.302Z,36.03
2018-04-15T02:27:40.690Z,38.10
2018-04-15T02:30:07.262Z,37.17
2018-04-15T02:32:33.642Z,33.70
2018-04-15T02:34:59.978Z,35.47
2018-04-15T02:37:26.313Z,33.47
2018-04-15T02:39:52.649Z,31.27
2018-04-15T02:42:19.042Z,33.93
2018-04-15T02:44:45.394Z,33.47
2018-04-15T02:47:11.745Z,34.20
2018-04-15T02:49:38.059Z,33.70
2018-04-15T02:52:04.414Z,33.13
2018-04-15T02:54:30.743Z,34.30
2018-04-15T02:56:57.112Z,33.37
2018-04-15T02:59:23.438Z,30.97
2018-04-15T03:01:50.510Z,31.50
2018-04-15T03:04:16.857Z,31.53
2018-04-15T03:06:43.219Z,31.47
2018-04-15T03:09:09.570Z,30.97
2018-04-15T03:11:35.952Z,31.27
2018-04-15T03:14:02.302Z,31.77
2018-04-15T03:16:28.639Z,32.67
2018-04-15T03:18:54.962Z,31.83
2018-04-15T03:21:21.284Z,31.27
2018-04-15T03:23:47.664Z,30.50
2018-04-15T03:26:13.984Z,31.60
2018-04-15T03:28:41.088Z,31.47
2018-04-15T03:31:07.446Z,30.70
2018-04-15T03:33:33.813Z,30.07
2018-04-15T03:36:00.145Z,29.20
2018-04-15T03:38:27.242Z,29.93
2018-04-15T03:40:53.575Z,29.97
2018-04-15T03:43:19.946Z,29.67
2018-04-15T03:45:46.275Z,29.20
2018-04-15T03:48:13.371Z,31.00
2018-04-15T03:50:39.696Z,29.17
2018-04-15T03:53:06.081Z,27.30
2018-04-15T03:55:33.150Z,28.53
2018-04-15T03:57:59.474Z,28.30
2018-04-15T04:00:26.759Z,27.03
2018-04-15T04:02:53.165Z,25.63
2018-04-15T04:05:19.519Z,26.47
2018-04-15T04:07:45.849Z,25.80
2018-04-15T04:10:12.208Z,24.33
2018-04-15T04:12:38.539Z,25.90
2018-04-15T04:15:04.943Z,24.97
2018-04-15T04:20:44.358Z,24.67
2018-04-15T04:23:23.016Z,25.97
2018-04-15T04:25:56.242Z,26.07
2018-04-15T04:28:22.569Z,25.03
2018-04-15T04:30:48.977Z,25.03
2018-04-15T04:33:15.277Z,25.93
2018-04-15T04:35:42.411Z,25.40
2018-04-15T04:38:09.469Z,24.57
2018-04-15T04:40:36.562Z,25.50
2018-04-15T04:43:02.878Z,27.20
2018-04-15T04:45:29.231Z,25.50
2018-04-15T04:47:55.540Z,24.70
2018-04-15T04:50:21.890Z,20.80
2018-04-15T04:52:48.208Z,23.20
2018-04-15T04:55:14.572Z,20.47
2018-04-15T04:57:40.889Z,21.00
2018-04-15T05:00:07.389Z,19.40
2018-04-15T05:02:33.746Z,21.10
2018-04-15T05:05:00.057Z,21.33
2018-04-15T05:07:26.387Z,22.40
2018-04-15T05:09:52.752Z,21.33
2018-04-15T05:12:19.866Z,21.67
2018-04-15T05:14:46.202Z,22.40
2018-04-15T05:17:12.587Z,22.50
2018-04-15T05:19:38.938Z,22.57
2018-04-15T05:22:05.315Z,24.07
2018-04-15T05:24:31.742Z,22.77
2018-04-15T05:26:58.104Z,25.00
2018-04-15T05:29:25.173Z,24.93
2018-04-15T05:31:51.553Z,22.87
2018-04-15T05:34:17.864Z,21.70
2018-04-15T05:36:44.267Z,21.13
2018-04-15T05:39:11.335Z,20.43
2018-04-15T05:41:37.725Z,22.13
2018-04-15T05:44:04.076Z,22.33
2018-04-15T05:46:30.405Z,22.23
2018-04-15T05:48:56.763Z,20.90
2018-04-15T05:51:23.112Z,23.80
2018-04-15T05:53:49.509Z,25.90
2018-04-15T05:56:16.111Z,26.03
2018-04-15T05:58:42.459Z,25.97
2018-04-15T06:01:08.786Z,25.97
2018-04-15T06:03:35.163Z,25.80
2018-04-15T06:06:01.506Z,25.93
2018-04-15T06:08:27.850Z,25.87
2018-04-15T06:10:54.952Z,24.47
2018-04-15T06:13:21.369Z,26.40
2018-04-15T06:15:47.709Z,25.57
2018-04-15T06:18:14.057Z,27.37
2018-04-15T06:20:40.399Z,27.27
2018-04-15T06:23:06.755Z,27.17
2018-04-15T06:25:33.855Z,27.67
2018-04-15T06:28:00.206Z,26.07
2018-04-15T06:30:26.524Z,22.43
2018-04-15T06:32:52.871Z,22.03
2018-04-15T06:35:19.224Z,23.97
2018-04-15T06:37:45.861Z,24.47
2018-04-15T06:40:12.214Z,25.60
2018-04-15T06:42:39.282Z,24.97
2018-04-15T06:45:05.670Z,26.80
2018-04-15T06:47:31.974Z,27.80
2018-04-15T06:49:58.337Z,28.23
2018-04-15T06:52:25.426Z,34.07
2018-04-15T06:54:51.814Z,37.53
2018-04-15T06:57:18.137Z,37.13
2018-04-15T06:59:44.478Z,36.83
2018-04-15T07:02:10.791Z,35.60
2018-04-15T07:04:37.160Z,36.63
2018-04-15T07:07:04.233Z,36.57
2018-04-15T07:09:30.647Z,37.63
2018-04-15T07:11:57.695Z,38.97
2018-04-15T07:14:24.021Z,37.13
2018-04-15T07:16:50.348Z,36.27
2018-04-15T07:19:17.454Z,34.80
2018-04-15T07:21:43.788Z,35.27
2018-04-15T07:24:10.930Z,36.23
2018-04-15T07:26:37.278Z,36.20
2018-04-15T07:29:04.339Z,35.63
2018-04-15T07:31:31.433Z,35.93
2018-04-15T07:33:57.816Z,35.43
2018-04-15T07:36:25.005Z,35.00
2018-04-15T07:38:52.049Z,36.60
2018-04-15T07:41:18.406Z,37.27
2018-04-15T07:43:45.518Z,39.87
2018-04-15T07:46:11.882Z,35.47
2018-04-15T07:48:38.202Z,36.90
2018-04-15T07:51:04.555Z,39.50
2018-04-15T07:53:32.397Z,40.73
2018-04-15T07:55:58.779Z,39.30
2018-04-15T07:58:25.849Z,39.53
2018-04-15T08:00:52.952Z,39.20
2018-04-15T08:03:19.280Z,38.30
2018-04-15T08:05:45.640Z,40.30
2018-04-15T08:08:12.734Z,39.83
2018-04-15T08:10:39.113Z,40.10
2018-04-15T08:13:05.620Z,39.90
2018-04-15T08:15:31.994Z,37.63
2018-04-15T08:17:59.197Z,39.33
2018-04-15T08:20:25.538Z,38.10
2018-04-15T08:22:51.885Z,42.00
2018-04-15T08:25:18.500Z,39.20
2018-04-15T08:27:44.854Z,36.60
2018-04-15T08:30:11.908Z,36.63
2018-04-15T08:32:39.012Z,36.10
2018-04-15T08:35:05.334Z,35.00
2018-04-15T08:37:31.740Z,33.90
2018-04-15T08:39:58.563Z,35.73
2018-04-15T08:42:25.717Z,34.57
2018-04-15T08:44:52.194Z,34.77
2018-04-15T08:47:18.598Z,36.37
2018-04-15T08:49:45.672Z,38.07
2018-04-15T08:52:12.031Z,38.83
2018-04-15T08:54:38.394Z,36.80
2018-04-15T08:57:06.523Z,35.20
2018-04-15T08:59:33.042Z,36.10
2018-04-15T09:01:59.399Z,37.07
2018-04-15T09:04:25.753Z,35.10
2018-04-15T09:06:52.851Z,37.10
2018-04-15T09:09:19.174Z,36.10
2018-04-15T09:11:45.541Z,36.00
2018-04-15T09:14:11.885Z,37.50
2018-04-15T09:16:38.985Z,37.23
2018-04-15T09:19:05.397Z,36.77
2018-04-15T09:21:31.762Z,35.37
2018-04-15T09:23:58.080Z,36.50
2018-04-15T09:26:24.454Z,37.23
2018-04-15T09:28:50.797Z,36.10
2018-04-15T09:31:17.209Z,38.00
2018-04-15T09:33:43.584Z,38.00
2018-04-15T09:36:09.958Z,38.77
2018-04-15T09:38:36.325Z,38.60
2018-04-15T09:41:03.404Z,38.90
2018-04-15T09:43:29.778Z,39.50
2018-04-15T09:45:56.898Z,37.80
2018-04-15T09:48:23.286Z,39.20
2018-04-15T09:50:50.341Z,40.73
2018-04-15T09:53:18.259Z,40.40
2018-04-15T09:55:44.579Z,41.90
2018-04-15T09:58:10.939Z,39.50
2018-04-15T10:00:38.034Z,42.83
2018-04-15T10:03:04.387Z,44.50
2018-04-15T10:05:30.714Z,42.80
2018-04-15T10:07:57.083Z,43.70
2018-04-15T10:10:23.426Z,43.80
2018-04-15T10:12:50.479Z,41.20
2018-04-15T10:15:17.556Z,41.97
2018-04-15T10:17:43.881Z,43.30
2018-04-15T10:20:10.282Z,44.20
2018-04-15T10:22:37.336Z,44.30
2018-04-15T10:25:04.433Z,42.30
2018-04-15T10:27:31.567Z,44.67
2018-04-15T10:29:57.918Z,40.17
2018-04-15T10:32:24.251Z,40.50
2018-04-15T10:34:50.625Z,43.30
2018-04-15T10:37:17.674Z,43.23
2018-04-15T10:39:44.030Z,43.80
2018-04-15T10:42:10.376Z,44.07
2018-04-15T10:44:36.752Z,44.47
2018-04-15T10:47:03.072Z,44.00
2018-04-15T10:49:29.450Z,41.27
2018-04-15T10:51:55.761Z,46.13
2018-04-15T10:54:22.832Z,45.97
2018-04-15T10:56:49.146Z,43.20
2018-04-15T10:59:15.499Z,42.63
2018-04-15T11:01:41.829Z,43.80
2018-04-15T11:04:08.197Z,45.40
2018-04-15T11:06:34.515Z,46.43
2018-04-15T11:09:00.857Z,42.93
2018-04-15T11:11:27.202Z,42.67
2018-04-15T11:13:54.280Z,46.80
2018-04-15T11:16:20.625Z,45.03
2018-04-15T11:18:46.958Z,45.40
2018-04-15T11:21:13.360Z,43.40
2018-04-15T11:23:40.414Z,42.30
2018-04-15T11:26:07.482Z,43.40
2018-04-15T11:28:34.561Z,45.97
2018-04-15T11:31:01.033Z,41.47
2018-04-15T11:33:28.093Z,43.07
2018-04-15T11:35:54.449Z,43.80
2018-04-15T11:38:20.809Z,45.03
2018-04-15T11:40:47.163Z,45.13
2018-04-15T11:43:14.225Z,44.17
2018-04-15T11:45:41.318Z,44.43
2018-04-15T11:48:07.656Z,47.63
2018-04-15T11:50:34.008Z,47.07
2018-04-15T11:53:01.097Z,48.63
2018-04-15T11:55:27.421Z,45.13
2018-04-15T11:57:53.847Z,45.30
2018-04-15T12:00:20.150Z,45.10
2018-04-15T12:02:47.251Z,43.27
2018-04-15T12:05:13.569Z,45.20
2018-04-15T12:07:39.922Z,44.07
2018-04-15T12:10:06.245Z,43.97
2018-04-15T12:12:32.589Z,44.10
2018-04-15T12:14:58.958Z,44.50
2018-04-15T12:17:26.081Z,44.20
2018-04-15T12:19:53.155Z,44.73
2018-04-15T12:22:20.258Z,45.17
2018-04-15T12:24:46.581Z,44.07
2018-04-15T12:27:12.959Z,42.20
2018-04-15T12:29:40.022Z,40.90
2018-04-15T12:32:07.112Z,43.60
2018-04-15T12:34:33.467Z,43.50
2018-04-15T12:37:00.572Z,42.40
2018-04-15T12:39:26.884Z,42.60
2018-04-15T12:41:53.995Z,42.77
2018-04-15T12:44:20.319Z,44.10
2018-04-15T12:46:46.656Z,42.13
2018-04-15T12:49:12.985Z,42.30
2018-04-15T12:51:39.314Z,44.03
2018-04-15T12:54:05.670Z,41.80
2018-04-15T12:56:32.743Z,42.37
2018-04-15T12:58:59.099Z,42.27
2018-04-15T13:01:25.514Z,43.03
2018-04-15T13:03:51.907Z,41.70
2018-04-15T13:06:19.020Z,41.60
2018-04-15T13:08:45.503Z,40.00
2018-04-15T13:11:12.565Z,40.43
2018-04-15T13:13:38.921Z,42.03
2018-04-15T13:16:05.263Z,41.30
2018-04-15T13:18:31.613Z,42.80
2018-04-15T13:20:58.681Z,42.60
2018-04-15T13:23:25.814Z,40.80
2018-04-15T13:25:52.166Z,42.07
2018-04-15T13:28:19.264Z,45.10
2018-04-15T13:30:45.591Z,41.70
2018-04-15T13:33:11.946Z,44.00
2018-04-15T13:35:38.321Z,43.10
2018-04-15T13:38:04.687Z,43.27
2018-04-15T13:40:31.037Z,43.37
2018-04-15T13:42:58.141Z,42.70
2018-04-15T13:45:24.469Z,41.83
2018-04-15T13:47:50.845Z,42.53
2018-04-15T13:50:17.178Z,40.50
2018-04-15T13:52:43.461Z,42.97
2018-04-15T13:55:09.823Z,43.00
2018-04-15T13:57:36.153Z,41.70
2018-04-15T14:00:03.096Z,41.13
2018-04-15T14:02:29.474Z,42.10
2018-04-15T14:04:55.826Z,43.20
2018-04-15T14:07:22.133Z,41.77
2018-04-15T14:09:48.494Z,40.30
2018-04-15T14:12:15.614Z,42.70
2018-04-15T14:14:41.978Z,40.67
2018-04-15T14:17:08.308Z,42.50
2018-04-15T14:19:34.666Z,42.80
2018-04-15T14:22:01.009Z,42.80
2018-04-15T14:24:28.142Z,42.77
2018-04-15T14:26:55.239Z,40.97
2018-04-15T14:29:21.592Z,41.37
2018-04-15T14:31:47.945Z,42.40
2018-04-15T14:34:14.316Z,38.50
2018-04-15T14:36:41.433Z,39.50
2018-04-15T14:39:07.806Z,38.07
2018-04-15T14:41:34.157Z,39.70
2018-04-15T14:44:00.539Z,39.57
2018-04-15T14:46:26.987Z,39.43
2018-04-15T14:48:54.059Z,38.97
2018-04-15T14:51:20.413Z,39.57
2018-04-15T14:53:46.799Z,38.40
2018-04-15T14:56:13.894Z,38.73
2018-04-15T14:58:40.265Z,38.97
2018-04-15T15:01:06.625Z,40.47
2018-04-15T15:03:32.961Z,38.57
2018-04-15T15:05:59.313Z,37.40
2018-04-15T15:08:25.685Z,37.90
2018-04-15T15:10:51.999Z,37.53
2018-04-15T15:13:18.837Z,35.87
2018-04-15T15:15:45.221Z,35.67
2018-04-15T15:18:12.935Z,36.43
2018-04-15T15:20:39.239Z,37.70
2018-04-15T15:23:06.311Z,39.17
2018-04-15T15:25:32.615Z,36.90
2018-04-15T15:27:59.669Z,39.23
2018-04-15T15:30:26.733Z,37.70
2018-04-15T15:32:53.042Z,37.60
2018-04-15T15:35:19.374Z,39.67
2018-04-15T15:37:45.702Z,37.10
2018-04-15T15:40:12.027Z,38.73
2018-04-15T15:42:39.062Z,37.50
2018-04-15T15:45:05.414Z,35.70
2018-04-15T15:47:31.715Z,38.40
2018-04-15T15:49:58.013Z,38.67
2018-04-15T15:52:24.335Z,37.60
2018-04-15T15:54:50.628Z,36.20
2018-04-15T15:57:16.946Z,36.60
2018-04-15T15:59:43.234Z,36.57
2018-04-15T16:02:09.549Z,38.50
2018-04-15T16:04:35.842Z,37.40
2018-04-15T16:07:02.922Z,36.70
2018-04-15T16:09:29.201Z,35.93
2018-04-15T16:11:55.559Z,37.50
2018-04-15T16:14:21.839Z,37.80
2018-04-15T16:16:48.143Z,37.70
2018-04-15T16:19:14.422Z,36.13
2018-04-15T16:21:41.488Z,36.83
2018-04-15T16:24:07.781Z,34.07
2018-04-15T16:26:34.128Z,33.93
2018-04-15T16:29:01.209Z,35.77
2018-04-15T16:31:27.531Z,34.93
2018-04-15T16:33:53.820Z,33.53
2018-04-15T16:36:20.138Z,36.53
2018-04-15T16:38:46.447Z,35.33
2018-04-15T16:41:12.766Z,35.90
2018-04-15T16:43:39.087Z,35.37
2018-04-15T16:46:05.416Z,35.90
2018-04-15T16:48:31.705Z,35.10
2018-04-15T16:50:57.995Z,36.57
2018-04-15T16:53:24.308Z,35.93
2018-04-15T16:55:50.606Z,36.07
2018-04-15T16:58:17.685Z,35.67
2018-04-15T17:00:43.958Z,35.37
2018-04-15T17:03:10.267Z,35.90
2018-04-15T17:05:36.572Z,35.90
2018-04-15T17:08:02.915Z,35.17
2018-04-15T17:10:29.208Z,36.90
2018-04-15T17:12:55.533Z,34.73
2018-04-15T17:15:21.831Z,34.90
2018-04-15T17:17:48.137Z,35.80
2018-04-15T17:20:14.420Z,35.80
2018-04-15T17:22:40.755Z,34.70
2018-04-15T17:25:07.778Z,37.00
2018-04-15T17:27:34.083Z,39.37
2018-04-15T17:30:00.391Z,39.47
2018-04-15T17:32:26.705Z,39.73
2018-04-15T17:34:52.992Z,40.40
2018-04-15T17:37:19.302Z,39.50
2018-04-15T17:39:45.607Z,38.77
2018-04-15T17:42:11.895Z,35.83
2018-04-15T17:44:38.962Z,37.77
2018-04-15T17:47:05.251Z,34.97
2018-04-15T17:49:31.578Z,36.30
2018-04-15T17:51:58.610Z,35.10
2018-04-15T17:54:25.711Z,38.20
2018-04-15T17:56:52.024Z,40.80
2018-04-15T17:59:18.369Z,39.13
2018-04-15T18:01:45.398Z,37.70
2018-04-15T18:04:11.721Z,36.87
2018-04-15T18:06:37.998Z,35.53
2018-04-15T18:09:05.357Z,37.90
2018-04-15T18:11:31.649Z,36.00
2018-04-15T18:13:58.740Z,38.47
2018-04-15T18:16:25.061Z,37.17
2018-04-15T18:18:51.387Z,38.00
2018-04-15T18:21:17.670Z,39.53
2018-04-15T18:23:44.720Z,39.33
2018-04-15T18:26:11.002Z,39.73
2018-04-15T18:28:37.306Z,37.70
2018-04-15T18:31:04.354Z,38.47
2018-04-15T18:33:30.674Z,37.20
2018-04-15T18:35:57.693Z,38.20
2018-04-15T18:38:25.489Z,38.90
2018-04-15T18:40:51.842Z,37.67
2018-04-15T18:43:18.123Z,38.23
2018-04-15T18:45:44.432Z,37.70
2018-04-15T18:48:10.738Z,37.87
2018-04-15T18:50:37.068Z,40.07
2018-04-15T18:53:03.350Z,41.00
2018-04-15T18:55:30.466Z,37.73
2018-04-15T18:57:56.751Z,38.43
2018-04-15T19:00:24.161Z,38.37
2018-04-15T19:02:50.609Z,36.53
2018-04-15T19:05:22.883Z,38.90
2018-04-15T19:07:49.813Z,38.23
2018-04-15T19:10:16.223Z,38.13
2018-04-15T19:12:42.502Z,38.00
2018-04-15T19:15:09.563Z,41.60
2018-04-15T19:17:35.862Z,40.30
2018-04-15T19:20:02.970Z,42.43
2018-04-15T19:22:29.273Z,39.80
2018-04-15T19:24:55.617Z,38.70
2018-04-15T19:27:21.896Z,40.00
2018-04-15T19:29:48.206Z,39.57
2018-04-15T19:32:14.490Z,41.10
2018-04-15T19:34:40.837Z,38.80
2018-04-15T19:37:07.131Z,40.30
2018-04-15T19:39:34.192Z,42.80
2018-04-15T19:42:01.212Z,41.13
2018-04-15T19:44:28.239Z,38.50
2018-04-15T19:46:54.749Z,40.63
2018-04-15T19:49:21.320Z,40.40
2018-04-15T19:51:47.654Z,42.50
2018-04-15T19:54:13.938Z,40.57
2018-04-15T19:56:40.248Z,40.17
2018-04-15T19:59:06.557Z,42.63
2018-04-15T20:01:32.886Z,38.23
2018-04-15T20:03:59.937Z,38.60
2018-04-15T20:06:27.008Z,38.47
2018-04-15T20:08:53.307Z,38.80
2018-04-15T20:11:19.630Z,37.30
2018-04-15T20:13:47.394Z,36.93
2018-04-15T20:16:13.710Z,38.20
2018-04-15T20:18:40.015Z,37.73
2018-04-15T20:21:06.338Z,39.77
2018-04-15T20:23:32.637Z,40.80
2018-04-15T20:25:58.962Z,40.57
2018-04-15T20:28:25.997Z,43.10
2018-04-15T20:30:53.052Z,41.17
2018-04-15T20:33:20.126Z,38.40
2018-04-15T20:35:46.452Z,37.93
2018-04-15T20:38:12.769Z,36.20
2018-04-15T20:40:39.136Z,36.50
2018-04-15T20:43:05.445Z,37.67
2018-04-15T20:45:31.765Z,37.97
2018-04-15T20:47:58.071Z,38.60
2018-04-15T20:50:25.100Z,39.10
2018-04-15T20:52:51.407Z,37.67
2018-04-15T20:55:17.796Z,38.30
2018-04-15T20:57:44.152Z,37.77
2018-04-15T21:00:10.575Z,37.60
2018-04-15T21:02:36.992Z,39.00
2018-04-15T21:05:03.317Z,35.30
2018-04-15T21:07:29.651Z,35.83
2018-04-15T21:09:55.981Z,36.43
2018-04-15T21:12:22.351Z,35.57
2018-04-15T21:14:48.642Z,36.83
2018-04-15T21:17:14.943Z,33.77
2018-04-15T21:19:41.964Z,35.20
2018-04-15T21:22:08.293Z,34.73
2018-04-15T21:24:34.610Z,36.30
2018-04-15T21:27:00.934Z,35.70
2018-04-15T21:29:27.285Z,35.10
2018-04-15T21:31:53.562Z,34.30
2018-04-15T21:34:20.677Z,35.33
2018-04-15T21:36:46.985Z,33.37
2018-04-15T21:39:13.377Z,32.30
2018-04-15T21:41:39.686Z,33.50
2018-04-15T21:44:06.752Z,34.03
2018-04-15T21:46:33.031Z,31.67
2018-04-15T21:48:59.398Z,32.63
2018-04-15T21:51:25.666Z,33.97
2018-04-15T21:53:51.994Z,34.33
2018-04-15T21:56:19.131Z,33.87
2018-04-15T21:58:45.523Z,32.60
2018-04-15T22:01:11.831Z,33.20
2018-04-15T22:03:38.198Z,33.70
2018-04-15T22:06:06.096Z,34.47
2018-04-15T22:08:32.458Z,32.60
2018-04-15T22:10:58.786Z,32.10
2018-04-15T22:13:25.123Z,34.93
2018-04-15T22:15:51.415Z,30.97
2018-04-15T22:18:17.749Z,32.43
2018-04-15T22:20:44.159Z,35.20
2018-04-15T22:23:10.522Z,33.73
2018-04-15T22:25:36.813Z,32.70
2018-04-15T22:28:03.874Z,32.40
2018-04-15T22:30:30.183Z,32.03
2018-04-15T22:32:56.503Z,33.70
2018-04-15T22:35:22.806Z,35.07
2018-04-15T22:37:49.088Z,35.07
2018-04-15T22:40:15.396Z,34.53
2018-04-15T22:42:41.676Z,34.00
2018-04-15T22:45:08.018Z,33.17
2018-04-15T22:47:34.318Z,34.20
2018-04-15T22:50:06.657Z,31.97
2018-04-15T22:52:33.692Z,33.00
2018-04-15T22:55:00.002Z,31.60
2018-04-15T22:57:26.303Z,31.50
2018-04-15T22:59:52.615Z,32.23
2018-04-15T23:02:18.899Z,32.67
2018-04-15T23:04:45.999Z,34.77
2018-04-15T23:07:12.337Z,33.97
2018-04-15T23:09:38.712Z,31.10
2018-04-15T23:12:05.798Z,31.37
2018-04-15T23:14:32.143Z,32.50
2018-04-15T23:16:58.478Z,30.07
2018-04-15T23:19:24.809Z,31.43
2018-04-15T23:21:51.154Z,32.40
2018-04-15T23:24:17.580Z,31.23
2018-04-15T23:26:43.946Z,33.27
2018-04-15T23:29:10.308Z,31.70
2018-04-15T23:31:36.658Z,32.93
2018-04-15T23:34:02.979Z,34.10
2018-04-15T23:36:29.370Z,31.07
2018-04-15T23:38:55.724Z,33.67
2018-04-15T23:41:22.076Z,33.50
2018-04-15T23:43:48.413Z,30.37
2018-04-15T23:46:14.793Z,31.40
2018-04-15T23:48:41.473Z,29.70
2018-04-15T23:51:07.809Z,34.63
2018-04-15T23:53:34.134Z,33.10
2018-04-15T23:56:00.461Z,32.33
2018-04-15T23:58:26.792Z,33.13
